sensor_id;sensor_type;location;lat;lon;timestamp;temperature;humidity
14349;DHT22;7258;50.376;8.742;2023-08-31T00:00:46;12.40;99.90
14349;DHT22;7258;50.376;8.742;2023-08-31T00:02:49;12.30;99.90
14349;DHT22;7258;50.376;8.742;2023-08-31T00:04:53;12.20;99.90
14349;DHT22;7258;50.376;8.742;2023-08-31T00:06:56;12.20;99.90
14349;DHT22;7258;50.376;8.742;2023-08-31T00:08:58;12.20;99.90
14349;DHT22;7258;50.376;8.742;2023-08-31T00:11:01;12.20;99.90
14349;DHT22;7258;50.376;8.742;2023-08-31T00:13:05;12.20;99.90
14349;DHT22;7258;50.376;8.742;2023-08-31T00:15:11;12.20;99.90
14349;DHT22;7258;50.376;8.742;2023-08-31T00:17:15;12.20;99.90
14349;DHT22;7258;50.376;8.742;2023-08-31T00:19:19;12.30;99.90
14349;DHT22;7258;50.376;8.742;2023-08-31T00:21:22;12.30;99.90
14349;DHT22;7258;50.376;8.742;2023-08-31T00:23:24;12.30;99.90
14349;DHT22;7258;50.376;8.742;2023-08-31T00:25:28;12.30;99.90
14349;DHT22;7258;50.376;8.742;2023-08-31T00:27:32;12.30;99.90
14349;DHT22;7258;50.376;8.742;2023-08-31T00:29:35;12.30;99.90
14349;DHT22;7258;50.376;8.742;2023-08-31T00:31:40;12.20;99.90
14349;DHT22;7258;50.376;8.742;2023-08-31T00:33:44;12.20;99.90
14349;DHT22;7258;50.376;8.742;2023-08-31T00:35:47;12.20;99.90
14349;DHT22;7258;50.376;8.742;2023-08-31T00:37:52;12.20;99.90
14349;DHT22;7258;50.376;8.742;2023-08-31T00:40:00;12.20;99.90
14349;DHT22;7258;50.376;8.742;2023-08-31T00:42:03;12.20;99.90
14349;DHT22;7258;50.376;8.742;2023-08-31T00:44:09;12.20;99.90
14349;DHT22;7258;50.376;8.742;2023-08-31T00:46:14;12.20;99.90
14349;DHT22;7258;50.376;8.742;2023-08-31T00:48:19;12.20;99.90
14349;DHT22;7258;50.376;8.742;2023-08-31T00:50:22;12.20;99.90
14349;DHT22;7258;50.376;8.742;2023-08-31T00:52:25;12.20;99.90
14349;DHT22;7258;50.376;8.742;2023-08-31T00:54:28;12.20;99.90
14349;DHT22;7258;50.376;8.742;2023-08-31T00:56:32;12.20;99.90
14349;DHT22;7258;50.376;8.742;2023-08-31T00:58:36;12.20;99.90
14349;DHT22;7258;50.376;8.742;2023-08-31T01:00:45;12.20;99.90
14349;DHT22;7258;50.376;8.742;2023-08-31T01:02:59;12.20;99.90
14349;DHT22;7258;50.376;8.742;2023-08-31T01:05:13;12.20;99.90
14349;DHT22;7258;50.376;8.742;2023-08-31T01:07:25;12.20;99.90
14349;DHT22;7258;50.376;8.742;2023-08-31T01:09:36;12.20;99.90
14349;DHT22;7258;50.376;8.742;2023-08-31T01:11:49;12.20;99.90
14349;DHT22;7258;50.376;8.742;2023-08-31T01:14:18;12.20;99.90
14349;DHT22;7258;50.376;8.742;2023-08-31T01:16:23;12.20;99.90
14349;DHT22;7258;50.376;8.742;2023-08-31T01:18:27;12.20;99.90
14349;DHT22;7258;50.376;8.742;2023-08-31T01:20:38;12.10;99.90
14349;DHT22;7258;50.376;8.742;2023-08-31T01:22:51;12.10;99.90
14349;DHT22;7258;50.376;8.742;2023-08-31T01:25:00;12.10;99.90
14349;DHT22;7258;50.376;8.742;2023-08-31T01:27:06;12.10;99.90
14349;DHT22;7258;50.376;8.742;2023-08-31T01:29:08;12.10;99.90
14349;DHT22;7258;50.376;8.742;2023-08-31T01:31:12;12.10;99.90
14349;DHT22;7258;50.376;8.742;2023-08-31T01:33:15;12.00;99.90
14349;DHT22;7258;50.376;8.742;2023-08-31T01:35:18;12.00;99.90
14349;DHT22;7258;50.376;8.742;2023-08-31T01:37:26;12.00;99.90
14349;DHT22;7258;50.376;8.742;2023-08-31T01:39:35;12.00;99.90
14349;DHT22;7258;50.376;8.742;2023-08-31T01:41:46;11.90;99.90
14349;DHT22;7258;50.376;8.742;2023-08-31T01:43:51;12.00;99.90
14349;DHT22;7258;50.376;8.742;2023-08-31T01:45:54;12.00;99.90
14349;DHT22;7258;50.376;8.742;2023-08-31T01:47:57;12.00;99.90
14349;DHT22;7258;50.376;8.742;2023-08-31T01:50:04;11.90;99.90
14349;DHT22;7258;50.376;8.742;2023-08-31T01:52:09;12.00;99.90
14349;DHT22;7258;50.376;8.742;2023-08-31T01:54:12;12.00;99.90
14349;DHT22;7258;50.376;8.742;2023-08-31T01:56:15;12.00;99.90
14349;DHT22;7258;50.376;8.742;2023-08-31T01:58:20;12.00;99.90
14349;DHT22;7258;50.376;8.742;2023-08-31T02:00:25;11.90;99.90
14349;DHT22;7258;50.376;8.742;2023-08-31T02:02:28;11.90;99.90
14349;DHT22;7258;50.376;8.742;2023-08-31T02:04:31;11.90;99.90
14349;DHT22;7258;50.376;8.742;2023-08-31T02:06:35;11.90;99.90
14349;DHT22;7258;50.376;8.742;2023-08-31T02:08:37;11.80;99.90
14349;DHT22;7258;50.376;8.742;2023-08-31T02:10:40;11.90;99.90
14349;DHT22;7258;50.376;8.742;2023-08-31T02:12:43;11.80;99.90
14349;DHT22;7258;50.376;8.742;2023-08-31T02:14:50;11.80;99.90
14349;DHT22;7258;50.376;8.742;2023-08-31T02:16:53;11.90;99.90
14349;DHT22;7258;50.376;8.742;2023-08-31T02:18:56;11.90;99.90
14349;DHT22;7258;50.376;8.742;2023-08-31T02:20:59;11.90;99.90
14349;DHT22;7258;50.376;8.742;2023-08-31T02:23:02;11.90;99.90
14349;DHT22;7258;50.376;8.742;2023-08-31T02:25:05;11.90;99.90
14349;DHT22;7258;50.376;8.742;2023-08-31T02:27:08;12.00;99.90
14349;DHT22;7258;50.376;8.742;2023-08-31T02:29:11;12.00;99.90
14349;DHT22;7258;50.376;8.742;2023-08-31T02:31:17;12.10;99.90
14349;DHT22;7258;50.376;8.742;2023-08-31T02:33:20;12.00;99.90
14349;DHT22;7258;50.376;8.742;2023-08-31T02:35:22;12.10;99.90
14349;DHT22;7258;50.376;8.742;2023-08-31T02:37:25;12.10;99.90
14349;DHT22;7258;50.376;8.742;2023-08-31T02:39:28;12.10;99.90
14349;DHT22;7258;50.376;8.742;2023-08-31T02:41:30;12.10;99.90
14349;DHT22;7258;50.376;8.742;2023-08-31T02:43:33;12.10;99.90
14349;DHT22;7258;50.376;8.742;2023-08-31T02:45:36;12.10;99.90
14349;DHT22;7258;50.376;8.742;2023-08-31T02:47:40;12.10;99.90
14349;DHT22;7258;50.376;8.742;2023-08-31T02:49:43;12.10;99.90
14349;DHT22;7258;50.376;8.742;2023-08-31T02:51:46;12.10;99.90
14349;DHT22;7258;50.376;8.742;2023-08-31T02:53:54;12.10;99.90
14349;DHT22;7258;50.376;8.742;2023-08-31T02:55:57;12.20;99.90
14349;DHT22;7258;50.376;8.742;2023-08-31T02:57:59;12.20;99.90
14349;DHT22;7258;50.376;8.742;2023-08-31T03:00:02;12.20;99.90
14349;DHT22;7258;50.376;8.742;2023-08-31T03:02:10;12.20;99.90
14349;DHT22;7258;50.376;8.742;2023-08-31T03:04:14;12.20;99.90
14349;DHT22;7258;50.376;8.742;2023-08-31T03:06:17;12.20;99.90
14349;DHT22;7258;50.376;8.742;2023-08-31T03:08:19;12.20;99.90
14349;DHT22;7258;50.376;8.742;2023-08-31T03:10:22;12.20;99.90
14349;DHT22;7258;50.376;8.742;2023-08-31T03:12:28;12.20;99.90
14349;DHT22;7258;50.376;8.742;2023-08-31T03:14:34;12.20;99.90
14349;DHT22;7258;50.376;8.742;2023-08-31T03:16:37;12.20;99.90
14349;DHT22;7258;50.376;8.742;2023-08-31T03:18:40;12.20;99.90
14349;DHT22;7258;50.376;8.742;2023-08-31T03:20:45;12.20;99.90
14349;DHT22;7258;50.376;8.742;2023-08-31T03:22:48;12.30;99.90
14349;DHT22;7258;50.376;8.742;2023-08-31T03:24:52;12.30;99.90
14349;DHT22;7258;50.376;8.742;2023-08-31T03:26:55;12.30;99.90
14349;DHT22;7258;50.376;8.742;2023-08-31T03:28:58;12.30;99.90
14349;DHT22;7258;50.376;8.742;2023-08-31T03:31:02;12.30;99.90
14349;DHT22;7258;50.376;8.742;2023-08-31T03:33:05;12.30;99.90
14349;DHT22;7258;50.376;8.742;2023-08-31T03:35:09;12.30;99.90
14349;DHT22;7258;50.376;8.742;2023-08-31T03:37:16;12.30;99.90
14349;DHT22;7258;50.376;8.742;2023-08-31T03:39:19;12.20;99.90
14349;DHT22;7258;50.376;8.742;2023-08-31T03:41:23;12.20;99.90
14349;DHT22;7258;50.376;8.742;2023-08-31T03:43:26;12.20;99.90
14349;DHT22;7258;50.376;8.742;2023-08-31T03:45:31;12.10;99.90
14349;DHT22;7258;50.376;8.742;2023-08-31T03:47:36;12.10;99.90
14349;DHT22;7258;50.376;8.742;2023-08-31T03:49:39;12.00;99.90
14349;DHT22;7258;50.376;8.742;2023-08-31T03:51:42;11.90;99.90
14349;DHT22;7258;50.376;8.742;2023-08-31T03:53:46;11.90;99.90
14349;DHT22;7258;50.376;8.742;2023-08-31T03:55:50;11.90;99.90
14349;DHT22;7258;50.376;8.742;2023-08-31T03:57:53;11.70;99.90
14349;DHT22;7258;50.376;8.742;2023-08-31T03:59:57;11.70;99.90
14349;DHT22;7258;50.376;8.742;2023-08-31T04:01:59;11.60;99.90
14349;DHT22;7258;50.376;8.742;2023-08-31T04:04:02;11.60;99.90
14349;DHT22;7258;50.376;8.742;2023-08-31T04:06:06;11.50;99.90
14349;DHT22;7258;50.376;8.742;2023-08-31T04:08:09;11.50;99.90
14349;DHT22;7258;50.376;8.742;2023-08-31T04:10:12;11.50;99.90
14349;DHT22;7258;50.376;8.742;2023-08-31T04:12:21;11.50;99.90
14349;DHT22;7258;50.376;8.742;2023-08-31T04:14:26;11.50;99.90
14349;DHT22;7258;50.376;8.742;2023-08-31T04:16:29;11.40;99.90
14349;DHT22;7258;50.376;8.742;2023-08-31T04:18:34;11.50;99.90
14349;DHT22;7258;50.376;8.742;2023-08-31T04:20:37;11.50;99.90
14349;DHT22;7258;50.376;8.742;2023-08-31T04:22:41;11.40;99.90
14349;DHT22;7258;50.376;8.742;2023-08-31T04:24:44;11.40;99.90
14349;DHT22;7258;50.376;8.742;2023-08-31T04:26:47;11.40;99.90
14349;DHT22;7258;50.376;8.742;2023-08-31T04:28:53;11.30;99.90
14349;DHT22;7258;50.376;8.742;2023-08-31T04:30:56;11.30;99.90
14349;DHT22;7258;50.376;8.742;2023-08-31T04:32:59;11.30;99.90
14349;DHT22;7258;50.376;8.742;2023-08-31T04:35:02;11.30;99.90
14349;DHT22;7258;50.376;8.742;2023-08-31T04:37:06;11.30;99.90
14349;DHT22;7258;50.376;8.742;2023-08-31T04:39:09;11.30;99.90
14349;DHT22;7258;50.376;8.742;2023-08-31T04:41:13;11.30;99.90
14349;DHT22;7258;50.376;8.742;2023-08-31T04:43:20;11.30;99.90
14349;DHT22;7258;50.376;8.742;2023-08-31T04:45:23;11.20;99.90
14349;DHT22;7258;50.376;8.742;2023-08-31T04:47:24;11.20;99.90
14349;DHT22;7258;50.376;8.742;2023-08-31T04:49:27;11.20;99.90
14349;DHT22;7258;50.376;8.742;2023-08-31T04:51:31;11.10;99.90
14349;DHT22;7258;50.376;8.742;2023-08-31T04:53:34;11.10;99.90
14349;DHT22;7258;50.376;8.742;2023-08-31T04:55:37;11.10;99.90
14349;DHT22;7258;50.376;8.742;2023-08-31T04:57:40;11.10;99.90
14349;DHT22;7258;50.376;8.742;2023-08-31T04:59:44;11.10;99.90
14349;DHT22;7258;50.376;8.742;2023-08-31T05:01:47;11.10;99.90
14349;DHT22;7258;50.376;8.742;2023-08-31T05:03:50;11.10;99.90
14349;DHT22;7258;50.376;8.742;2023-08-31T05:05:53;11.10;99.90
14349;DHT22;7258;50.376;8.742;2023-08-31T05:07:58;11.10;99.90
14349;DHT22;7258;50.376;8.742;2023-08-31T05:10:01;11.10;99.90
14349;DHT22;7258;50.376;8.742;2023-08-31T05:12:04;11.10;99.90
14349;DHT22;7258;50.376;8.742;2023-08-31T05:14:07;11.10;99.90
14349;DHT22;7258;50.376;8.742;2023-08-31T05:16:11;11.00;99.90
14349;DHT22;7258;50.376;8.742;2023-08-31T05:18:14;11.10;99.90
14349;DHT22;7258;50.376;8.742;2023-08-31T05:20:17;11.10;99.90
14349;DHT22;7258;50.376;8.742;2023-08-31T05:22:20;11.10;99.90
14349;DHT22;7258;50.376;8.742;2023-08-31T05:24:23;11.10;99.90
14349;DHT22;7258;50.376;8.742;2023-08-31T05:26:26;11.20;99.90
14349;DHT22;7258;50.376;8.742;2023-08-31T05:28:29;11.20;99.90
14349;DHT22;7258;50.376;8.742;2023-08-31T05:30:32;11.20;99.90
14349;DHT22;7258;50.376;8.742;2023-08-31T05:32:37;11.20;99.90
14349;DHT22;7258;50.376;8.742;2023-08-31T05:34:40;11.20;99.90
14349;DHT22;7258;50.376;8.742;2023-08-31T05:36:43;11.20;99.90
14349;DHT22;7258;50.376;8.742;2023-08-31T05:38:46;11.20;99.90
14349;DHT22;7258;50.376;8.742;2023-08-31T05:40:49;11.20;99.90
14349;DHT22;7258;50.376;8.742;2023-08-31T05:42:52;11.30;99.90
14349;DHT22;7258;50.376;8.742;2023-08-31T05:44:54;11.30;99.90
14349;DHT22;7258;50.376;8.742;2023-08-31T05:46:57;11.30;99.90
14349;DHT22;7258;50.376;8.742;2023-08-31T05:49:01;11.30;99.90
14349;DHT22;7258;50.376;8.742;2023-08-31T05:51:04;11.40;99.90
14349;DHT22;7258;50.376;8.742;2023-08-31T05:53:07;11.40;99.90
14349;DHT22;7258;50.376;8.742;2023-08-31T05:55:11;11.50;99.90
14349;DHT22;7258;50.376;8.742;2023-08-31T05:57:13;11.60;99.90
14349;DHT22;7258;50.376;8.742;2023-08-31T05:59:16;11.60;99.90
14349;DHT22;7258;50.376;8.742;2023-08-31T06:01:19;11.70;99.90
14349;DHT22;7258;50.376;8.742;2023-08-31T06:03:22;11.80;99.90
14349;DHT22;7258;50.376;8.742;2023-08-31T06:05:26;12.00;99.90
14349;DHT22;7258;50.376;8.742;2023-08-31T06:07:31;12.10;99.90
14349;DHT22;7258;50.376;8.742;2023-08-31T06:09:35;12.20;99.90
14349;DHT22;7258;50.376;8.742;2023-08-31T06:11:39;12.30;99.90
14349;DHT22;7258;50.376;8.742;2023-08-31T06:13:42;12.50;99.90
14349;DHT22;7258;50.376;8.742;2023-08-31T06:15:45;12.60;99.90
14349;DHT22;7258;50.376;8.742;2023-08-31T06:17:48;12.60;99.90
14349;DHT22;7258;50.376;8.742;2023-08-31T06:19:50;12.80;99.90
14349;DHT22;7258;50.376;8.742;2023-08-31T06:21:54;12.80;99.90
14349;DHT22;7258;50.376;8.742;2023-08-31T06:23:57;12.80;99.90
14349;DHT22;7258;50.376;8.742;2023-08-31T06:26:00;13.00;99.90
14349;DHT22;7258;50.376;8.742;2023-08-31T06:28:03;13.10;99.90
14349;DHT22;7258;50.376;8.742;2023-08-31T06:30:09;13.20;99.90
14349;DHT22;7258;50.376;8.742;2023-08-31T06:32:13;13.30;99.90
14349;DHT22;7258;50.376;8.742;2023-08-31T06:34:16;13.40;99.90
14349;DHT22;7258;50.376;8.742;2023-08-31T06:36:19;13.60;99.90
14349;DHT22;7258;50.376;8.742;2023-08-31T06:38:23;13.80;99.90
14349;DHT22;7258;50.376;8.742;2023-08-31T06:40:26;14.10;99.90
14349;DHT22;7258;50.376;8.742;2023-08-31T06:42:29;14.20;99.90
14349;DHT22;7258;50.376;8.742;2023-08-31T06:44:32;14.50;99.90
14349;DHT22;7258;50.376;8.742;2023-08-31T06:46:35;14.80;99.90
14349;DHT22;7258;50.376;8.742;2023-08-31T06:48:39;15.00;99.90
14349;DHT22;7258;50.376;8.742;2023-08-31T06:50:42;15.30;99.90
14349;DHT22;7258;50.376;8.742;2023-08-31T06:52:45;15.40;99.90
14349;DHT22;7258;50.376;8.742;2023-08-31T06:54:50;15.50;99.90
14349;DHT22;7258;50.376;8.742;2023-08-31T06:56:52;15.20;99.90
14349;DHT22;7258;50.376;8.742;2023-08-31T06:58:55;15.00;99.90
14349;DHT22;7258;50.376;8.742;2023-08-31T07:01:00;14.80;99.90
14349;DHT22;7258;50.376;8.742;2023-08-31T07:03:04;14.70;99.90
14349;DHT22;7258;50.376;8.742;2023-08-31T07:05:09;14.70;99.90
14349;DHT22;7258;50.376;8.742;2023-08-31T07:07:13;14.80;99.90
14349;DHT22;7258;50.376;8.742;2023-08-31T07:09:17;15.00;99.90
14349;DHT22;7258;50.376;8.742;2023-08-31T07:11:22;14.90;99.90
14349;DHT22;7258;50.376;8.742;2023-08-31T07:13:25;14.80;99.90
14349;DHT22;7258;50.376;8.742;2023-08-31T07:15:28;14.70;99.90
14349;DHT22;7258;50.376;8.742;2023-08-31T07:17:33;14.60;99.90
14349;DHT22;7258;50.376;8.742;2023-08-31T07:19:36;14.50;99.90
14349;DHT22;7258;50.376;8.742;2023-08-31T07:21:40;14.60;99.90
14349;DHT22;7258;50.376;8.742;2023-08-31T07:23:42;14.60;99.90
14349;DHT22;7258;50.376;8.742;2023-08-31T07:25:45;14.70;99.90
14349;DHT22;7258;50.376;8.742;2023-08-31T07:27:50;14.60;99.90
14349;DHT22;7258;50.376;8.742;2023-08-31T07:29:54;14.70;99.90
14349;DHT22;7258;50.376;8.742;2023-08-31T07:31:57;14.90;99.90
14349;DHT22;7258;50.376;8.742;2023-08-31T07:34:00;14.90;99.90
14349;DHT22;7258;50.376;8.742;2023-08-31T07:36:05;15.00;99.90
14349;DHT22;7258;50.376;8.742;2023-08-31T07:38:08;15.00;99.90
14349;DHT22;7258;50.376;8.742;2023-08-31T07:40:11;15.10;99.90
14349;DHT22;7258;50.376;8.742;2023-08-31T07:42:14;15.20;99.90
14349;DHT22;7258;50.376;8.742;2023-08-31T07:44:19;15.20;99.90
14349;DHT22;7258;50.376;8.742;2023-08-31T07:46:21;15.20;99.90
14349;DHT22;7258;50.376;8.742;2023-08-31T07:48:24;15.20;99.90
14349;DHT22;7258;50.376;8.742;2023-08-31T07:50:27;15.20;99.90
14349;DHT22;7258;50.376;8.742;2023-08-31T07:52:30;15.20;99.90
14349;DHT22;7258;50.376;8.742;2023-08-31T07:54:33;15.20;99.90
14349;DHT22;7258;50.376;8.742;2023-08-31T07:56:37;15.30;99.90
14349;DHT22;7258;50.376;8.742;2023-08-31T07:58:41;15.40;99.90
14349;DHT22;7258;50.376;8.742;2023-08-31T08:00:45;15.50;99.90
14349;DHT22;7258;50.376;8.742;2023-08-31T08:02:48;15.70;99.90
14349;DHT22;7258;50.376;8.742;2023-08-31T08:04:51;15.60;99.90
14349;DHT22;7258;50.376;8.742;2023-08-31T08:06:54;15.80;99.90
14349;DHT22;7258;50.376;8.742;2023-08-31T08:08:57;15.80;99.90
14349;DHT22;7258;50.376;8.742;2023-08-31T08:11:00;15.80;99.90
14349;DHT22;7258;50.376;8.742;2023-08-31T08:13:04;15.70;99.90
14349;DHT22;7258;50.376;8.742;2023-08-31T08:15:07;15.60;99.90
14349;DHT22;7258;50.376;8.742;2023-08-31T08:17:11;15.60;99.90
14349;DHT22;7258;50.376;8.742;2023-08-31T08:19:14;15.60;99.90
14349;DHT22;7258;50.376;8.742;2023-08-31T08:21:23;15.70;99.90
14349;DHT22;7258;50.376;8.742;2023-08-31T08:23:25;16.00;99.90
14349;DHT22;7258;50.376;8.742;2023-08-31T08:25:28;16.30;99.90
14349;DHT22;7258;50.376;8.742;2023-08-31T08:27:30;16.50;99.90
14349;DHT22;7258;50.376;8.742;2023-08-31T08:29:34;16.80;99.90
14349;DHT22;7258;50.376;8.742;2023-08-31T08:31:37;17.20;99.90
14349;DHT22;7258;50.376;8.742;2023-08-31T08:33:41;17.20;99.90
14349;DHT22;7258;50.376;8.742;2023-08-31T08:35:44;17.30;99.90
14349;DHT22;7258;50.376;8.742;2023-08-31T08:37:47;17.20;99.90
14349;DHT22;7258;50.376;8.742;2023-08-31T08:39:50;17.20;99.90
14349;DHT22;7258;50.376;8.742;2023-08-31T08:41:57;17.20;99.90
14349;DHT22;7258;50.376;8.742;2023-08-31T08:44:02;17.20;99.90
14349;DHT22;7258;50.376;8.742;2023-08-31T08:46:06;17.10;99.90
14349;DHT22;7258;50.376;8.742;2023-08-31T08:48:09;17.10;99.90
14349;DHT22;7258;50.376;8.742;2023-08-31T08:50:13;17.10;99.90
14349;DHT22;7258;50.376;8.742;2023-08-31T08:52:16;17.10;99.90
14349;DHT22;7258;50.376;8.742;2023-08-31T08:54:20;17.10;99.90
14349;DHT22;7258;50.376;8.742;2023-08-31T08:56:24;17.10;99.90
14349;DHT22;7258;50.376;8.742;2023-08-31T08:58:27;17.10;99.90
14349;DHT22;7258;50.376;8.742;2023-08-31T09:00:31;17.30;99.90
14349;DHT22;7258;50.376;8.742;2023-08-31T09:02:34;17.10;99.90
14349;DHT22;7258;50.376;8.742;2023-08-31T09:04:37;17.10;99.90
14349;DHT22;7258;50.376;8.742;2023-08-31T09:06:42;17.30;99.90
14349;DHT22;7258;50.376;8.742;2023-08-31T09:08:44;17.40;99.90
14349;DHT22;7258;50.376;8.742;2023-08-31T09:10:46;17.50;99.90
14349;DHT22;7258;50.376;8.742;2023-08-31T09:12:50;17.70;99.90
14349;DHT22;7258;50.376;8.742;2023-08-31T09:14:59;17.80;99.90
14349;DHT22;7258;50.376;8.742;2023-08-31T09:17:03;17.80;99.90
14349;DHT22;7258;50.376;8.742;2023-08-31T09:19:18;17.80;99.90
14349;DHT22;7258;50.376;8.742;2023-08-31T09:21:21;17.50;99.90
14349;DHT22;7258;50.376;8.742;2023-08-31T09:23:27;17.20;99.90
14349;DHT22;7258;50.376;8.742;2023-08-31T09:25:30;17.20;99.90
14349;DHT22;7258;50.376;8.742;2023-08-31T09:27:37;17.00;99.90
14349;DHT22;7258;50.376;8.742;2023-08-31T09:29:46;17.00;99.90
14349;DHT22;7258;50.376;8.742;2023-08-31T09:31:50;17.10;99.90
14349;DHT22;7258;50.376;8.742;2023-08-31T09:33:53;17.20;99.90
14349;DHT22;7258;50.376;8.742;2023-08-31T09:35:57;17.40;99.90
14349;DHT22;7258;50.376;8.742;2023-08-31T09:38:01;17.50;99.90
14349;DHT22;7258;50.376;8.742;2023-08-31T09:40:06;17.80;99.90
14349;DHT22;7258;50.376;8.742;2023-08-31T09:42:09;18.10;99.90
14349;DHT22;7258;50.376;8.742;2023-08-31T09:44:16;18.20;99.90
14349;DHT22;7258;50.376;8.742;2023-08-31T09:46:20;18.10;99.90
14349;DHT22;7258;50.376;8.742;2023-08-31T09:48:23;18.00;99.90
14349;DHT22;7258;50.376;8.742;2023-08-31T09:50:28;17.90;99.90
14349;DHT22;7258;50.376;8.742;2023-08-31T09:52:32;17.80;99.90
14349;DHT22;7258;50.376;8.742;2023-08-31T09:54:35;17.80;99.90
14349;DHT22;7258;50.376;8.742;2023-08-31T09:56:41;17.80;99.90
14349;DHT22;7258;50.376;8.742;2023-08-31T09:58:44;17.80;99.90
14349;DHT22;7258;50.376;8.742;2023-08-31T10:00:49;17.60;99.90
14349;DHT22;7258;50.376;8.742;2023-08-31T10:02:52;17.50;99.90
14349;DHT22;7258;50.376;8.742;2023-08-31T10:04:56;17.40;99.90
14349;DHT22;7258;50.376;8.742;2023-08-31T10:07:00;17.40;99.90
14349;DHT22;7258;50.376;8.742;2023-08-31T10:09:04;17.50;99.90
14349;DHT22;7258;50.376;8.742;2023-08-31T10:11:07;17.70;99.90
14349;DHT22;7258;50.376;8.742;2023-08-31T10:13:16;17.80;99.90
14349;DHT22;7258;50.376;8.742;2023-08-31T10:15:19;18.20;99.90
14349;DHT22;7258;50.376;8.742;2023-08-31T10:17:23;18.60;99.90
14349;DHT22;7258;50.376;8.742;2023-08-31T10:19:27;19.00;99.90
14349;DHT22;7258;50.376;8.742;2023-08-31T10:21:30;19.00;99.90
14349;DHT22;7258;50.376;8.742;2023-08-31T10:23:33;18.80;99.90
14349;DHT22;7258;50.376;8.742;2023-08-31T10:26:02;18.70;99.90
14349;DHT22;7258;50.376;8.742;2023-08-31T10:28:17;18.50;99.90
14349;DHT22;7258;50.376;8.742;2023-08-31T10:30:26;18.20;99.90
14349;DHT22;7258;50.376;8.742;2023-08-31T10:32:30;18.20;99.90
14349;DHT22;7258;50.376;8.742;2023-08-31T10:34:36;18.20;99.90
14349;DHT22;7258;50.376;8.742;2023-08-31T10:36:40;18.30;99.90
14349;DHT22;7258;50.376;8.742;2023-08-31T10:38:46;18.40;99.90
14349;DHT22;7258;50.376;8.742;2023-08-31T10:41:03;18.60;99.90
14349;DHT22;7258;50.376;8.742;2023-08-31T10:43:24;18.70;99.90
14349;DHT22;7258;50.376;8.742;2023-08-31T10:45:43;18.90;99.90
14349;DHT22;7258;50.376;8.742;2023-08-31T10:47:47;18.90;99.90
14349;DHT22;7258;50.376;8.742;2023-08-31T10:49:50;19.00;99.90
14349;DHT22;7258;50.376;8.742;2023-08-31T10:51:55;19.10;99.90
14349;DHT22;7258;50.376;8.742;2023-08-31T10:54:05;19.20;99.90
14349;DHT22;7258;50.376;8.742;2023-08-31T10:56:08;19.10;99.90
14349;DHT22;7258;50.376;8.742;2023-08-31T10:58:11;19.30;99.90
14349;DHT22;7258;50.376;8.742;2023-08-31T11:00:47;19.50;99.90
14349;DHT22;7258;50.376;8.742;2023-08-31T11:02:52;19.80;99.90
14349;DHT22;7258;50.376;8.742;2023-08-31T11:05:00;19.90;99.90
14349;DHT22;7258;50.376;8.742;2023-08-31T11:07:15;20.10;99.90
14349;DHT22;7258;50.376;8.742;2023-08-31T11:09:19;20.10;99.90
14349;DHT22;7258;50.376;8.742;2023-08-31T11:11:23;20.20;99.90
14349;DHT22;7258;50.376;8.742;2023-08-31T11:13:26;20.40;99.90
14349;DHT22;7258;50.376;8.742;2023-08-31T11:15:30;20.30;99.90
14349;DHT22;7258;50.376;8.742;2023-08-31T11:17:33;20.40;99.90
14349;DHT22;7258;50.376;8.742;2023-08-31T11:19:37;20.40;99.90
14349;DHT22;7258;50.376;8.742;2023-08-31T11:21:40;20.50;99.90
14349;DHT22;7258;50.376;8.742;2023-08-31T11:23:43;20.40;99.90
14349;DHT22;7258;50.376;8.742;2023-08-31T11:25:47;20.40;99.90
14349;DHT22;7258;50.376;8.742;2023-08-31T11:27:53;20.30;99.90
14349;DHT22;7258;50.376;8.742;2023-08-31T11:29:57;20.00;99.90
14349;DHT22;7258;50.376;8.742;2023-08-31T11:32:04;19.70;99.90
14349;DHT22;7258;50.376;8.742;2023-08-31T11:34:12;19.40;99.90
14349;DHT22;7258;50.376;8.742;2023-08-31T11:36:15;19.20;99.90
14349;DHT22;7258;50.376;8.742;2023-08-31T11:38:19;18.90;99.90
14349;DHT22;7258;50.376;8.742;2023-08-31T11:40:22;18.60;99.90
14349;DHT22;7258;50.376;8.742;2023-08-31T11:42:25;18.50;99.90
14349;DHT22;7258;50.376;8.742;2023-08-31T11:44:28;18.50;99.90
14349;DHT22;7258;50.376;8.742;2023-08-31T11:46:31;18.70;99.90
14349;DHT22;7258;50.376;8.742;2023-08-31T11:48:36;19.00;99.90
14349;DHT22;7258;50.376;8.742;2023-08-31T11:50:39;19.20;99.90
14349;DHT22;7258;50.376;8.742;2023-08-31T11:52:44;19.30;99.90
14349;DHT22;7258;50.376;8.742;2023-08-31T11:54:52;19.50;99.90
14349;DHT22;7258;50.376;8.742;2023-08-31T11:56:55;19.50;99.90
14349;DHT22;7258;50.376;8.742;2023-08-31T11:58:58;19.70;99.90
14349;DHT22;7258;50.376;8.742;2023-08-31T12:01:05;19.60;99.90
14349;DHT22;7258;50.376;8.742;2023-08-31T12:03:08;19.60;99.90
14349;DHT22;7258;50.376;8.742;2023-08-31T12:05:16;19.70;99.90
14349;DHT22;7258;50.376;8.742;2023-08-31T12:07:19;19.80;99.90
14349;DHT22;7258;50.376;8.742;2023-08-31T12:09:22;20.00;99.90
14349;DHT22;7258;50.376;8.742;2023-08-31T12:11:26;20.10;99.90
14349;DHT22;7258;50.376;8.742;2023-08-31T12:13:29;20.30;99.90
14349;DHT22;7258;50.376;8.742;2023-08-31T12:15:32;20.50;99.90
14349;DHT22;7258;50.376;8.742;2023-08-31T12:17:39;20.80;99.90
14349;DHT22;7258;50.376;8.742;2023-08-31T12:19:42;21.00;99.90
14349;DHT22;7258;50.376;8.742;2023-08-31T12:21:46;21.30;99.90
14349;DHT22;7258;50.376;8.742;2023-08-31T12:23:49;21.40;99.80
14349;DHT22;7258;50.376;8.742;2023-08-31T12:25:53;21.40;99.80
14349;DHT22;7258;50.376;8.742;2023-08-31T12:27:55;21.40;98.90
14349;DHT22;7258;50.376;8.742;2023-08-31T12:29:58;21.20;99.00
14349;DHT22;7258;50.376;8.742;2023-08-31T12:32:00;21.00;99.20
14349;DHT22;7258;50.376;8.742;2023-08-31T12:34:04;20.70;98.10
14349;DHT22;7258;50.376;8.742;2023-08-31T12:36:07;20.60;99.90
14349;DHT22;7258;50.376;8.742;2023-08-31T12:38:16;20.70;99.40
14349;DHT22;7258;50.376;8.742;2023-08-31T12:40:20;20.70;99.00
14349;DHT22;7258;50.376;8.742;2023-08-31T12:42:24;20.60;98.40
14349;DHT22;7258;50.376;8.742;2023-08-31T12:44:27;20.40;99.20
14349;DHT22;7258;50.376;8.742;2023-08-31T12:46:29;20.20;99.00
14349;DHT22;7258;50.376;8.742;2023-08-31T12:48:33;20.10;99.70
14349;DHT22;7258;50.376;8.742;2023-08-31T12:50:36;20.10;99.80
14349;DHT22;7258;50.376;8.742;2023-08-31T12:52:38;20.00;99.00
14349;DHT22;7258;50.376;8.742;2023-08-31T12:54:47;20.00;99.60
14349;DHT22;7258;50.376;8.742;2023-08-31T12:56:50;20.10;99.90
14349;DHT22;7258;50.376;8.742;2023-08-31T12:58:53;20.10;99.20
14349;DHT22;7258;50.376;8.742;2023-08-31T13:00:58;20.20;98.10
14349;DHT22;7258;50.376;8.742;2023-08-31T13:03:00;20.20;98.60
14349;DHT22;7258;50.376;8.742;2023-08-31T13:05:05;20.30;98.30
14349;DHT22;7258;50.376;8.742;2023-08-31T13:07:08;20.40;98.00
14349;DHT22;7258;50.376;8.742;2023-08-31T13:09:11;20.40;98.20
14349;DHT22;7258;50.376;8.742;2023-08-31T13:11:15;20.30;98.00
14349;DHT22;7258;50.376;8.742;2023-08-31T13:13:19;20.40;98.20
14349;DHT22;7258;50.376;8.742;2023-08-31T13:15:22;20.30;98.00
14349;DHT22;7258;50.376;8.742;2023-08-31T13:17:25;20.40;98.70